createdAt,value
2022-11-19T00:00:19.577Z,-5.44
2022-11-19T00:03:40.771Z,-5.48
2022-11-19T00:06:46.095Z,-5.52
2022-11-19T00:09:51.565Z,-5.54
2022-11-19T00:12:59.366Z,-5.59
2022-11-19T00:16:06.490Z,-5.66
2022-11-19T00:19:12.466Z,-5.73
2022-11-19T00:22:17.725Z,-5.79
2022-11-19T00:25:22.978Z,-5.84
2022-11-19T00:28:28.238Z,-5.87
2022-11-19T00:31:33.635Z,-5.88
2022-11-19T00:34:38.973Z,-5.90
2022-11-19T00:37:44.314Z,-5.95
2022-11-19T00:40:49.849Z,-6.02
2022-11-19T00:43:55.769Z,-6.11
2022-11-19T00:47:01.198Z,-6.19
2022-11-19T00:50:07.046Z,-6.25
2022-11-19T00:53:12.252Z,-6.29
2022-11-19T00:56:19.208Z,-6.34
2022-11-19T00:59:24.593Z,-6.41
2022-11-19T01:02:29.861Z,-6.53
2022-11-19T01:05:35.320Z,-6.65
2022-11-19T01:08:40.795Z,-6.77
2022-11-19T01:11:46.183Z,-6.88
2022-11-19T01:14:51.874Z,-6.99
2022-11-19T01:17:57.115Z,-7.08
2022-11-19T01:21:02.432Z,-7.16
2022-11-19T01:24:08.132Z,-7.23
2022-11-19T01:27:13.435Z,-7.26
2022-11-19T01:30:18.898Z,-7.28
2022-11-19T01:33:24.414Z,-7.31
2022-11-19T01:36:30.141Z,-7.32
2022-11-19T01:39:35.389Z,-7.37
2022-11-19T01:42:53.947Z,-7.46
2022-11-19T01:45:59.257Z,-7.60
2022-11-19T01:49:06.788Z,-7.71
2022-11-19T01:52:12.079Z,-7.83
2022-11-19T01:55:18.514Z,-7.92
2022-11-19T01:58:25.247Z,-8.01
2022-11-19T02:01:32.198Z,-8.09
2022-11-19T02:04:37.803Z,-8.14
2022-11-19T02:07:45.787Z,-8.15
2022-11-19T02:10:57.417Z,-8.13
2022-11-19T02:14:09.045Z,-8.13
2022-11-19T02:17:19.198Z,-8.10
2022-11-19T02:20:44.065Z,-8.07
2022-11-19T02:23:58.144Z,-8.03
2022-11-19T02:27:18.279Z,-7.99
2022-11-19T02:30:23.855Z,-7.97
2022-11-19T02:33:30.735Z,-7.95
2022-11-19T02:36:40.282Z,-7.99
2022-11-19T02:39:50.435Z,-8.06
2022-11-19T02:43:09.243Z,-8.12
2022-11-19T02:46:16.080Z,-8.09
2022-11-19T02:49:24.760Z,-8.12
2022-11-19T02:52:30.275Z,-8.15
2022-11-19T02:55:36.678Z,-8.20
2022-11-19T02:59:01.951Z,-8.23
2022-11-19T03:02:26.112Z,-8.30
2022-11-19T03:05:33.028Z,-8.42
2022-11-19T03:08:38.625Z,-8.51
2022-11-19T03:11:46.358Z,-8.56
2022-11-19T03:15:13.255Z,-8.65
2022-11-19T03:18:20.535Z,-8.73
2022-11-19T03:21:29.814Z,-8.80
2022-11-19T03:24:36.529Z,-8.81
2022-11-19T03:27:42.743Z,-8.85
2022-11-19T03:30:49.383Z,-8.91
2022-11-19T03:33:56.888Z,-8.95
2022-11-19T03:37:03.988Z,-8.94
2022-11-19T03:40:11.203Z,-8.93
2022-11-19T03:43:19.443Z,-8.93
2022-11-19T03:46:26.682Z,-8.93
2022-11-19T03:49:34.499Z,-8.91
2022-11-19T03:52:39.922Z,-8.92
2022-11-19T03:55:47.979Z,-8.93
2022-11-19T03:58:54.395Z,-8.97
2022-11-19T04:02:02.641Z,-9.00
2022-11-19T04:05:09.229Z,-9.02
2022-11-19T04:08:14.510Z,-9.02
2022-11-19T04:14:24.054Z,-9.11
2022-11-19T04:17:29.401Z,-9.23
2022-11-19T04:20:34.872Z,-9.37
2022-11-19T04:23:40.147Z,-9.52
2022-11-19T04:26:45.719Z,-9.70
2022-11-19T04:29:51.015Z,-9.85
2022-11-19T04:32:56.379Z,-9.97
2022-11-19T04:36:01.630Z,-10.06
2022-11-19T04:39:07.055Z,-10.13
2022-11-19T04:42:12.460Z,-10.17
2022-11-19T04:45:17.984Z,-10.20
2022-11-19T04:48:23.444Z,-10.23
2022-11-19T04:51:28.725Z,-10.21
2022-11-19T04:54:34.147Z,-10.19
2022-11-19T04:57:39.372Z,-10.17
2022-11-19T05:00:44.853Z,-10.15
2022-11-19T05:03:50.858Z,-10.15
2022-11-19T05:06:56.294Z,-10.13
2022-11-19T05:10:01.627Z,-10.12
2022-11-19T05:13:06.958Z,-10.10
2022-11-19T05:16:12.195Z,-10.13
2022-11-19T05:19:17.789Z,-10.12
2022-11-19T05:22:23.454Z,-10.09
2022-11-19T05:25:28.733Z,-10.04
2022-11-19T05:28:39.023Z,-9.96
2022-11-19T05:31:48.184Z,-9.90
2022-11-19T05:34:53.704Z,-9.86
2022-11-19T05:37:58.985Z,-9.83
2022-11-19T05:41:04.368Z,-9.78
2022-11-19T05:44:09.825Z,-9.71
2022-11-19T05:47:15.898Z,-9.70
2022-11-19T05:50:21.392Z,-9.68
2022-11-19T05:53:28.902Z,-9.65
2022-11-19T05:56:34.459Z,-9.64
2022-11-19T05:59:43.768Z,-9.62
2022-11-19T06:02:49.595Z,-9.56
2022-11-19T06:05:55.041Z,-9.46
2022-11-19T06:09:00.275Z,-9.35
2022-11-19T06:12:06.081Z,-9.26
2022-11-19T06:15:11.901Z,-9.17
2022-11-19T06:18:17.257Z,-9.13
2022-11-19T06:21:22.629Z,-9.12
2022-11-19T06:24:27.894Z,-9.08
2022-11-19T06:27:33.280Z,-9.05
2022-11-19T06:30:38.761Z,-9.01
2022-11-19T06:33:43.991Z,-8.95
2022-11-19T06:36:50.722Z,-8.90
2022-11-19T06:39:56.419Z,-8.81
2022-11-19T06:43:01.889Z,-8.74
2022-11-19T06:46:07.929Z,-8.65
2022-11-19T06:49:18.362Z,-8.56
2022-11-19T06:52:25.231Z,-8.44
2022-11-19T06:55:30.602Z,-8.34
2022-11-19T06:58:36.050Z,-8.24
2022-11-19T07:01:41.398Z,-8.13
2022-11-19T07:04:46.769Z,-8.03
2022-11-19T07:07:51.952Z,-7.90
2022-11-19T07:10:57.514Z,-7.77
2022-11-19T07:14:04.015Z,-7.59
2022-11-19T07:17:09.396Z,-7.36
2022-11-19T07:20:15.153Z,-7.13
2022-11-19T07:23:20.663Z,-6.93
2022-11-19T07:26:26.408Z,-6.75
2022-11-19T07:29:32.009Z,-6.56
2022-11-19T07:32:37.571Z,-6.37
2022-11-19T07:35:43.231Z,-6.19
2022-11-19T07:38:50.645Z,-6.01
2022-11-19T07:42:13.889Z,-5.83
2022-11-19T07:45:20.349Z,-5.67
2022-11-19T07:48:25.991Z,-5.53
2022-11-19T07:51:31.926Z,-5.41
2022-11-19T07:54:37.638Z,-5.29
2022-11-19T07:57:43.276Z,-5.19
2022-11-19T08:00:48.691Z,-5.05
2022-11-19T08:03:56.754Z,-4.88
2022-11-19T08:07:02.590Z,-4.70
2022-11-19T08:10:09.406Z,-4.53
2022-11-19T08:13:14.980Z,-4.38
2022-11-19T08:16:34.802Z,-4.26
2022-11-19T08:19:40.243Z,-4.15
2022-11-19T08:22:45.638Z,-4.03
2022-11-19T08:25:50.996Z,-3.89
2022-11-19T08:28:56.287Z,-3.71
2022-11-19T08:32:01.765Z,-3.55
2022-11-19T08:35:08.059Z,-3.38
2022-11-19T08:38:13.702Z,-3.26
2022-11-19T08:41:36.394Z,-3.13
2022-11-19T08:44:41.779Z,-3.04
2022-11-19T08:47:47.188Z,-2.94
2022-11-19T08:50:52.850Z,-2.87
2022-11-19T08:53:58.312Z,-2.88
2022-11-19T08:57:03.873Z,-2.91
2022-11-19T09:00:10.397Z,-2.90
2022-11-19T09:03:15.762Z,-2.86
2022-11-19T09:06:21.136Z,-2.83
2022-11-19T09:09:27.963Z,-2.80
2022-11-19T09:12:33.615Z,-2.77
2022-11-19T09:15:39.288Z,-2.72
2022-11-19T09:18:44.857Z,-2.65
2022-11-19T09:21:50.328Z,-2.56
2022-11-19T09:24:55.819Z,-2.49
2022-11-19T09:28:01.742Z,-2.39
2022-11-19T09:31:10.031Z,-2.26
2022-11-19T09:34:15.401Z,-2.09
2022-11-19T09:37:20.845Z,-1.90
2022-11-19T09:40:26.387Z,-1.69
2022-11-19T09:43:38.569Z,-1.45
2022-11-19T09:46:49.016Z,-1.27
2022-11-19T09:50:01.709Z,-1.17
2022-11-19T09:53:12.524Z,-1.16
2022-11-19T09:56:19.176Z,-1.16
2022-11-19T09:59:27.040Z,-1.11
2022-11-19T10:02:33.503Z,-1.07
2022-11-19T10:05:56.446Z,-1.00
2022-11-19T10:09:17.346Z,-0.87
2022-11-19T10:12:38.020Z,-0.77
2022-11-19T10:15:52.324Z,-0.64
2022-11-19T10:19:01.911Z,-0.49
2022-11-19T10:22:10.494Z,-0.38
2022-11-19T10:25:18.435Z,-0.22
2022-11-19T10:28:26.694Z,-0.03
2022-11-19T10:31:35.823Z,0.20
2022-11-19T10:34:41.354Z,0.46
2022-11-19T10:37:58.325Z,0.64
2022-11-19T10:41:07.103Z,0.74
2022-11-19T10:44:37.310Z,0.85
2022-11-19T10:47:48.004Z,0.88
2022-11-19T10:50:56.001Z,0.85
2022-11-19T10:54:03.855Z,0.82
2022-11-19T10:57:13.972Z,0.75
2022-11-19T11:00:19.915Z,0.68
2022-11-19T11:03:27.700Z,0.53
2022-11-19T11:06:49.823Z,0.33
2022-11-19T11:09:55.308Z,0.15
2022-11-19T11:13:24.548Z,0.04
2022-11-19T11:16:42.648Z,-0.07
2022-11-19T11:19:56.197Z,-0.08
2022-11-19T11:23:06.427Z,-0.14
2022-11-19T11:26:12.806Z,-0.31
2022-11-19T11:29:27.305Z,-0.49
2022-11-19T11:32:33.340Z,-0.64
2022-11-19T11:35:38.842Z,-0.68
2022-11-19T11:38:46.386Z,-0.67
2022-11-19T11:42:07.695Z,-0.67
2022-11-19T11:45:21.762Z,-0.72
2022-11-19T11:48:29.714Z,-0.77
2022-11-19T11:51:36.744Z,-0.81
2022-11-19T11:54:54.814Z,-0.84
2022-11-19T11:58:01.355Z,-0.87
2022-11-19T12:01:15.888Z,-0.88
2022-11-19T12:04:22.096Z,-0.90
2022-11-19T12:07:41.051Z,-0.95
2022-11-19T12:10:51.671Z,-1.03
2022-11-19T12:14:00.085Z,-1.07
2022-11-19T12:17:14.238Z,-1.15
2022-11-19T12:20:24.900Z,-1.26
2022-11-19T12:23:45.949Z,-1.42
2022-11-19T12:26:54.845Z,-1.59
2022-11-19T12:30:05.360Z,-1.67
2022-11-19T12:33:17.282Z,-1.70
2022-11-19T12:36:28.638Z,-1.71
2022-11-19T12:39:41.859Z,-1.75
2022-11-19T12:42:53.421Z,-1.87
2022-11-19T12:46:04.417Z,-1.94
2022-11-19T12:49:20.471Z,-1.97
2022-11-19T12:52:39.685Z,-2.09
2022-11-19T12:55:51.063Z,-2.23
2022-11-19T12:59:01.277Z,-2.31
2022-11-19T13:02:13.929Z,-2.32
2022-11-19T13:05:20.598Z,-2.34
2022-11-19T13:08:29.939Z,-2.38
2022-11-19T13:11:37.509Z,-2.37
2022-11-19T13:14:49.462Z,-2.36
2022-11-19T13:18:00.201Z,-2.36
2022-11-19T13:21:11.064Z,-2.35
2022-11-19T13:24:23.399Z,-2.33
2022-11-19T13:27:30.077Z,-2.28
2022-11-19T13:30:37.839Z,-2.20
2022-11-19T13:33:48.578Z,-2.13
2022-11-19T13:36:59.738Z,-2.07
2022-11-19T13:40:10.368Z,-2.01
2022-11-19T13:43:35.787Z,-2.00
2022-11-19T13:46:44.701Z,-2.04
2022-11-19T13:49:53.657Z,-2.01
2022-11-19T13:53:02.967Z,-1.98
2022-11-19T13:56:12.546Z,-1.98
2022-11-19T13:59:25.842Z,-1.98
2022-11-19T14:02:47.388Z,-2.04
2022-11-19T14:06:06.243Z,-2.10
2022-11-19T14:09:19.160Z,-2.17
2022-11-19T14:12:35.548Z,-2.22
2022-11-19T14:16:11.477Z,-2.29
2022-11-19T14:19:36.138Z,-2.31
2022-11-19T14:23:02.353Z,-2.37
2022-11-19T14:26:23.680Z,-2.43
2022-11-19T14:29:46.588Z,-2.48
2022-11-19T14:32:53.310Z,-2.49
2022-11-19T14:36:00.578Z,-2.50
2022-11-19T14:39:13.409Z,-2.51
2022-11-19T14:42:19.659Z,-2.52
2022-11-19T14:45:25.054Z,-2.56
2022-11-19T14:48:31.362Z,-2.57
2022-11-19T14:51:38.908Z,-2.58
2022-11-19T14:54:45.964Z,-2.58
2022-11-19T14:57:56.887Z,-2.60
2022-11-19T15:01:08.806Z,-2.62
2022-11-19T15:04:14.547Z,-2.64
2022-11-19T15:07:36.351Z,-2.65
2022-11-19T15:10:49.714Z,-2.63
2022-11-19T15:14:08.988Z,-2.61
2022-11-19T15:17:14.322Z,-2.61
2022-11-19T15:20:29.520Z,-2.61
2022-11-19T15:23:37.318Z,-2.61
2022-11-19T15:26:48.543Z,-2.62
2022-11-19T15:30:13.356Z,-2.62
2022-11-19T15:33:32.252Z,-2.60
2022-11-19T15:36:40.648Z,-2.60
2022-11-19T15:39:48.743Z,-2.59
2022-11-19T15:42:58.119Z,-2.60
2022-11-19T15:46:07.043Z,-2.61
2022-11-19T15:49:15.481Z,-2.61
2022-11-19T15:52:25.321Z,-2.61
2022-11-19T15:55:32.047Z,-2.60
2022-11-19T15:58:39.122Z,-2.58
2022-11-19T16:01:44.569Z,-2.56
2022-11-19T16:04:51.278Z,-2.57
2022-11-19T16:07:57.668Z,-2.59
2022-11-19T16:11:21.655Z,-2.62
2022-11-19T16:14:41.590Z,-2.61
2022-11-19T16:17:47.841Z,-2.61
2022-11-19T16:20:53.812Z,-2.59
2022-11-19T16:24:17.883Z,-2.58
2022-11-19T16:27:25.101Z,-2.57
2022-11-19T16:30:32.454Z,-2.59
2022-11-19T16:33:37.990Z,-2.61
2022-11-19T16:36:47.256Z,-2.61
2022-11-19T16:39:53.661Z,-2.60
2022-11-19T16:43:01.623Z,-2.60
2022-11-19T16:46:07.849Z,-2.60
2022-11-19T16:49:25.188Z,-2.60
2022-11-19T16:52:47.086Z,-2.62
2022-11-19T16:55:53.217Z,-2.64
2022-11-19T16:59:00.432Z,-2.63
2022-11-19T17:02:06.018Z,-2.64
2022-11-19T17:05:13.326Z,-2.63
2022-11-19T17:08:23.129Z,-2.60
2022-11-19T17:11:57.481Z,-2.59
2022-11-19T17:15:03.876Z,-2.58
2022-11-19T17:18:19.743Z,-2.59
2022-11-19T17:21:26.987Z,-2.60
2022-11-19T17:24:35.854Z,-2.59
2022-11-19T17:27:41.090Z,-2.57
2022-11-19T17:30:49.507Z,-2.54
2022-11-19T17:33:56.029Z,-2.53
2022-11-19T17:37:01.565Z,-2.53
2022-11-19T17:40:08.175Z,-2.53
2022-11-19T17:43:31.345Z,-2.53
2022-11-19T17:46:36.869Z,-2.52
2022-11-19T17:49:42.455Z,-2.48
2022-11-19T17:52:47.786Z,-2.45
2022-11-19T17:55:54.302Z,-2.43
2022-11-19T17:59:00.477Z,-2.43
2022-11-19T18:02:06.158Z,-2.43
2022-11-19T18:05:17.602Z,-2.42
2022-11-19T18:08:22.898Z,-2.41
2022-11-19T18:11:28.263Z,-2.40
2022-11-19T18:14:33.536Z,-2.39
2022-11-19T18:17:38.938Z,-2.41
2022-11-19T18:20:44.288Z,-2.42
2022-11-19T18:23:50.533Z,-2.42
2022-11-19T18:26:55.755Z,-2.41
2022-11-19T18:30:01.075Z,-2.39
2022-11-19T18:33:06.538Z,-2.39
2022-11-19T18:36:12.142Z,-2.39
2022-11-19T18:39:17.546Z,-2.41
2022-11-19T18:42:23.993Z,-2.42
2022-11-19T18:45:29.400Z,-2.40
2022-11-19T18:48:34.899Z,-2.39
2022-11-19T18:51:40.280Z,-2.39
2022-11-19T18:54:45.679Z,-2.38
2022-11-19T18:57:51.015Z,-2.39
2022-11-19T19:00:56.400Z,-2.42
2022-11-19T19:04:02.132Z,-2.44
2022-11-19T19:07:07.881Z,-2.45
2022-11-19T19:10:13.924Z,-2.44
2022-11-19T19:13:19.943Z,-2.43
2022-11-19T19:16:26.145Z,-2.42
2022-11-19T19:19:31.612Z,-2.42
2022-11-19T19:22:37.024Z,-2.43
2022-11-19T19:25:42.297Z,-2.44
2022-11-19T19:28:50.595Z,-2.43
2022-11-19T19:31:57.082Z,-2.40
2022-11-19T19:35:02.319Z,-2.37
2022-11-19T19:38:07.715Z,-2.34
2022-11-19T19:41:14.749Z,-2.31
2022-11-19T19:44:20.246Z,-2.29
2022-11-19T19:47:25.685Z,-2.28
2022-11-19T19:50:31.246Z,-2.28
2022-11-19T19:53:37.975Z,-2.31
2022-11-19T19:56:43.674Z,-2.32
2022-11-19T19:59:48.986Z,-2.33
2022-11-19T20:02:54.230Z,-2.33
2022-11-19T20:05:59.554Z,-2.34
2022-11-19T20:09:08.778Z,-2.34
2022-11-19T20:12:14.568Z,-2.33
2022-11-19T20:15:20.084Z,-2.32
2022-11-19T20:18:26.214Z,-2.32
2022-11-19T20:21:34.122Z,-2.33
2022-11-19T20:24:39.705Z,-2.35
2022-11-19T20:27:46.013Z,-2.38
2022-11-19T20:30:51.547Z,-2.40
2022-11-19T20:33:57.563Z,-2.41
2022-11-19T20:37:02.992Z,-2.41
2022-11-19T20:40:10.461Z,-2.41
2022-11-19T20:43:33.504Z,-2.40
2022-11-19T20:46:39.059Z,-2.39
2022-11-19T20:49:44.300Z,-2.37
2022-11-19T20:52:49.620Z,-2.36
2022-11-19T20:56:05.118Z,-2.33
2022-11-19T20:59:11.202Z,-2.31
2022-11-19T21:02:16.689Z,-2.31
2022-11-19T21:05:23.126Z,-2.32
2022-11-19T21:08:29.195Z,-2.34
2022-11-19T21:11:35.245Z,-2.37
2022-11-19T21:14:40.381Z,-2.36
2022-11-19T21:17:45.823Z,-2.34
2022-11-19T21:20:51.628Z,-2.33
2022-11-19T21:23:57.636Z,-2.34
2022-11-19T21:27:03.138Z,-2.36
2022-11-19T21:30:10.812Z,-2.38
2022-11-19T21:33:16.176Z,-2.41
2022-11-19T21:36:21.511Z,-2.44
2022-11-19T21:39:27.183Z,-2.46
2022-11-19T21:42:32.568Z,-2.46
2022-11-19T21:45:40.632Z,-2.47
2022-11-19T21:48:46.003Z,-2.46
2022-11-19T21:51:51.321Z,-2.44
2022-11-19T21:54:56.759Z,-2.42
2022-11-19T21:58:04.837Z,-2.39
2022-11-19T22:01:11.443Z,-2.39
2022-11-19T22:04:16.865Z,-2.40
2022-11-19T22:07:22.100Z,-2.41
2022-11-19T22:10:27.677Z,-2.42
2022-11-19T22:13:33.089Z,-2.43
2022-11-19T22:16:40.130Z,-2.42
2022-11-19T22:19:45.451Z,-2.39
2022-11-19T22:22:50.820Z,-2.36
2022-11-19T22:25:56.279Z,-2.33
2022-11-19T22:29:01.640Z,-2.32
2022-11-19T22:32:07.240Z,-2.34
2022-11-19T22:35:12.537Z,-2.36
2022-11-19T22:38:17.856Z,-2.34
2022-11-19T22:41:23.489Z,-2.31
2022-11-19T22:44:28.907Z,-2.29
2022-11-19T22:47:35.884Z,-2.29
2022-11-19T22:50:41.809Z,-2.30
2022-11-19T22:53:47.818Z,-2.32
2022-11-19T22:56:53.300Z,-2.33
2022-11-19T22:59:58.666Z,-2.33
2022-11-19T23:03:04.094Z,-2.31
2022-11-19T23:06:09.405Z,-2.29
2022-11-19T23:09:14.870Z,-2.28
2022-11-19T23:12:38.265Z,-2.30
2022-11-19T23:15:44.581Z,-2.31
2022-11-19T23:18:50.750Z,-2.28
2022-11-19T23:21:56.149Z,-2.26
2022-11-19T23:25:01.491Z,-2.22
2022-11-19T23:28:07.058Z,-2.20
2022-11-19T23:31:14.901Z,-2.18
2022-11-19T23:34:20.407Z,-2.19
2022-11-19T23:37:26.079Z,-2.19
2022-11-19T23:40:31.612Z,-2.17
2022-11-19T23:43:37.221Z,-2.15
2022-11-19T23:46:42.708Z,-2.14
2022-11-19T23:49:48.144Z,-2.14
2022-11-19T23:52:53.448Z,-2.18
2022-11-19T23:55:59.205Z,-2.21
2022-11-19T23:59:05.211Z,-2.21
